Time;durP1;ratioP1;P1;durP2;ratioP2;P2;SDS_P1;SDS_P2;PMS_P1;PMS_P2;Temp;Humidity;BMP_temperature;BMP_pressure;BME280_temperature;BME280_humidity;BME280_pressure;Samples;Min_cycle;Max_cycle;Signal;HPM_P1;HPM_P2
2021/12/11 00:02:51;;;;;;;;;;;;;;;21.87;39.25;100088.39;99747;1381;76565;-83
2021/12/11 00:05:57;;;;;;;;;;;;;;;21.88;39.31;100094.24;99695;1380;61513;-83
2021/12/11 00:08:51;;;;;;;;;;;;;;;21.88;39.17;100094.27;99752;1374;61340;-83
2021/12/11 00:11:52;;;;;;;;;;;;;;;21.88;39.19;100096.38;99671;1377;73207;-83
2021/12/11 00:14:42;;;;;;;;;;;;;;;21.88;39.33;100105.11;99666;1380;76310;-83
2021/12/11 00:17:19;;;;;;;;;;;;;;;;;;;;;
2021/12/11 00:20:04;;;;;;;;;;;;;;;21.89;39.21;100117.60;99819;1374;61283;-84
2021/12/11 00:22:37;;;;;;;;;;;;;;;21.89;39.14;100112.55;100035;1376;73964;-83
2021/12/11 00:25:52;;;;;;;;;;;;;;;21.90;39.24;100115.75;100217;1371;75042;-83
2021/12/11 00:28:35;;;;;;;;;;;;;;;;;;;;;
2021/12/11 00:31:29;;;;;;;;;;;;;;;21.90;39.09;100125.25;101400;1357;61074;-83
2021/12/11 00:34:18;;;;;;;;;;;;;;;21.90;39.03;100127.54;101350;1360;72846;-83
2021/12/11 00:37:17;;;;;;;;;;;;;;;21.89;39.08;100126.15;101501;1360;73676;-84
2021/12/11 00:39:54;;;;;;;;;;;;;;;21.90;38.91;100129.02;101526;1357;61240;-83
2021/12/11 00:42:46;;;;;;;;;;;;;;;21.89;39.10;100139.59;101457;1360;61338;-83
2021/12/11 00:45:58;;;;;;;;;;;;;;;21.90;39.06;100149.23;101492;1363;72008;-83
2021/12/11 00:49:01;;;;;;;;;;;;;;;21.90;39.18;100143.69;101542;1357;75998;-84
2021/12/11 00:51:54;;;;;;;;;;;;;;;21.90;39.10;100140.45;101425;1360;61252;-83
2021/12/11 00:54:32;;;;;;;;;;;;;;;;;;;;;
2021/12/11 00:57:14;;;;;;;;;;;;;;;21.90;39.03;100141.16;100737;1362;72585;-83
2021/12/11 01:00:10;;;;;;;;;;;;;;;;;;;;;
2021/12/11 01:02:59;;;;;;;;;;;;;;;21.91;39.06;100136.07;100271;1369;61337;-84
2021/12/11 01:05:55;;;;;;;;;;;;;;;;;;;;;
2021/12/11 01:08:57;;;;;;;;;;;;;;;;;;;;;
2021/12/11 01:11:35;;;;;;;;;;;;;;;21.91;39.17;100142.66;99944;1374;74965;-82
2021/12/11 01:14:40;;;;;;;;;;;;;;;21.91;39.10;100147.87;99934;1378;61625;-83
2021/12/11 01:17:59;;;;;;;;;;;;;;;21.91;39.07;100148.26;99317;1384;61443;-82
2021/12/11 01:21:11;;;;;;;;;;;;;;;21.91;39.09;100159.51;99322;1380;74211;-83
2021/12/11 01:27:15;;;;;;;;;;;;;;;;;;;;;
2021/12/11 01:30:07;;;;;;;;;;;;;;;21.93;39.02;100157.41;99038;1386;61353;-84
2021/12/11 01:32:56;;;;;;;;;;;;;;;21.92;38.96;100159.05;99178;1381;74177;-85
2021/12/11 01:35:50;;;;;;;;;;;;;;;21.92;39.09;100175.00;99292;1380;74893;-84
2021/12/11 01:38:37;;;;;;;;;;;;;;;21.93;39.04;100176.59;99241;1380;63787;-84
2021/12/11 01:41:16;;;;;;;;;;;;;;;21.92;38.92;100171.23;99108;1390;61653;-82
2021/12/11 01:43:55;;;;;;;;;;;;;;;;;;;;;
2021/12/11 01:47:03;;;;;;;;;;;;;;;21.93;38.94;100178.02;99573;1377;72551;-83
2021/12/11 01:49:43;;;;;;;;;;;;;;;;;;;;;
2021/12/11 01:52:28;;;;;;;;;;;;;;;;;;;;;
2021/12/11 01:55:29;;;;;;;;;;;;;;;21.93;38.87;100170.08;99907;1379;73982;-83
2021/12/11 01:58:14;;;;;;;;;;;;;;;21.93;38.93;100168.67;99819;1374;73939;-83
2021/12/11 02:01:02;;;;;;;;;;;;;;;21.93;38.92;100173.30;99992;1368;61419;-83
2021/12/11 02:03:58;;;;;;;;;;;;;;;21.94;38.98;100173.46;100247;1375;61935;-83
2021/12/11 02:07:28;;;;;;;;;;;;;;;21.93;38.78;100165.04;100265;1368;74217;-83
2021/12/11 02:09:37;;;;;;;;;;;;;;;21.94;38.83;100163.74;100118;1376;75872;-83
2021/12/11 02:12:38;;;;;;;;;;;;;;;21.94;38.81;100163.20;100228;1371;61948;-83
2021/12/11 02:15:15;;;;;;;;;;;;;;;21.94;38.87;100163.94;100254;1371;61256;-82
2021/12/11 02:19:03;;;;;;;;;;;;;;;21.94;38.77;100172.02;100246;1370;74333;-84
2021/12/11 02:21:25;;;;;;;;;;;;;;;21.94;38.73;100182.20;100741;1369;76781;-84
2021/12/11 02:24:35;;;;;;;;;;;;;;;;;;;;;
2021/12/11 02:27:22;;;;;;;;;;;;;;;21.95;38.83;100197.70;100751;1365;61237;-83
2021/12/11 02:30:15;;;;;;;;;;;;;;;21.96;38.82;100198.76;100725;1369;73764;-84
2021/12/11 02:33:13;;;;;;;;;;;;;;;;;;;;;
2021/12/11 02:36:01;;;;;;;;;;;;;;;21.96;38.83;100207.89;101590;1358;61264;-82
2021/12/11 02:39:12;;;;;;;;;;;;;;;21.96;38.69;100213.79;101790;1351;61342;-82
2021/12/11 02:42:12;;;;;;;;;;;;;;;21.96;38.93;100218.11;101652;1356;73997;-82
2021/12/11 02:45:27;;;;;;;;;;;;;;;21.96;38.87;100203.88;101328;1363;74829;-82
2021/12/11 02:48:16;;;;;;;;;;;;;;;21.96;38.74;100188.83;101320;1361;61422;-82
2021/12/11 02:51:11;;;;;;;;;;;;;;;21.96;38.82;100175.92;101238;1364;61350;-82
2021/12/11 02:54:11;;;;;;;;;;;;;;;21.97;38.56;100185.23;100725;1366;73929;-83
2021/12/11 02:57:09;;;;;;;;;;;;;;;;;;;;;
2021/12/11 02:59:54;;;;;;;;;;;;;;;21.97;38.93;100184.34;100520;1377;60506;-83
2021/12/11 03:02:42;;;;;;;;;;;;;;;;;;;;;
2021/12/11 03:06:00;;;;;;;;;;;;;;;21.97;38.71;100193.08;100244;1377;73948;-83
2021/12/11 03:08:39;;;;;;;;;;;;;;;21.97;38.71;100187.50;99592;1378;73807;-83
2021/12/11 03:11:27;;;;;;;;;;;;;;;21.98;38.75;100181.70;99624;1383;61241;-84
2021/12/11 03:14:34;;;;;;;;;;;;;;;;;;;;;
2021/12/11 03:17:56;;;;;;;;;;;;;;;21.98;38.70;100167.02;99669;1381;72662;-83
2021/12/11 03:20:17;;;;;;;;;;;;;;;21.98;38.72;100168.30;99965;1375;73788;-83
2021/12/11 03:23:17;;;;;;;;;;;;;;;21.98;38.77;100167.02;100389;1374;61784;-83
2021/12/11 03:26:17;;;;;;;;;;;;;;;21.98;38.78;100170.59;100387;1369;61424;-83
2021/12/11 03:29:31;;;;;;;;;;;;;;;21.98;38.70;100166.27;100277;1371;73129;-84
2021/12/11 03:32:09;;;;;;;;;;;;;;;;;;;;;
2021/12/11 03:34:59;;;;;;;;;;;;;;;21.99;38.72;100177.17;100459;1373;61473;-83
2021/12/11 03:37:35;;;;;;;;;;;;;;;21.99;38.81;100180.40;100734;1366;61374;-83
2021/12/11 03:40:47;;;;;;;;;;;;;;;21.99;38.71;100189.16;100697;1370;72695;-83
2021/12/11 03:43:27;;;;;;;;;;;;;;;;;;;;;
2021/12/11 03:46:13;;;;;;;;;;;;;;;21.98;38.70;100182.23;101334;1360;61125;-83
2021/12/11 03:49:12;;;;;;;;;;;;;;;21.98;38.79;100186.52;101542;1360;61286;-83
2021/12/11 03:52:21;;;;;;;;;;;;;;;;;;;;;
2021/12/11 03:54:47;;;;;;;;;;;;;;;21.99;38.50;100204.91;101587;1356;74810;-83
2021/12/11 03:57:44;;;;;;;;;;;;;;;21.99;38.82;100201.56;100870;1363;61202;-83
2021/12/11 04:00:15;;;;;;;;;;;;;;;21.99;38.73;100190.73;101080;1368;61243;-83
2021/12/11 04:03:20;;;;;;;;;;;;;;;21.99;38.66;100182.88;101228;1360;72854;-83
2021/12/11 04:06:05;;;;;;;;;;;;;;;21.98;38.67;100181.50;101528;1360;74669;-83
2021/12/11 04:08:46;;;;;;;;;;;;;;;21.98;38.73;100183.30;101563;1357;61515;-82
2021/12/11 04:11:23;;;;;;;;;;;;;;;21.98;38.61;100190.63;101562;1358;61371;-82
2021/12/11 04:14:20;;;;;;;;;;;;;;;21.98;38.54;100190.98;101532;1357;73004;-82
2021/12/11 04:17:05;;;;;;;;;;;;;;;21.99;38.58;100204.25;101532;1357;74856;-83
2021/12/11 04:19:57;;;;;;;;;;;;;;;;;;;;;
2021/12/11 04:22:53;;;;;;;;;;;;;;;21.99;38.67;100219.84;101516;1357;60740;-82
2021/12/11 04:25:41;;;;;;;;;;;;;;;21.99;38.48;100215.88;101532;1357;72674;-83
2021/12/11 04:28:12;;;;;;;;;;;;;;;21.98;38.48;100221.80;101537;1357;75010;-83
2021/12/11 04:31:18;;;;;;;;;;;;;;;21.99;38.53;100234.67;101108;1363;61250;-83
2021/12/11 04:33:58;;;;;;;;;;;;;;;21.99;38.51;100254.17;101129;1366;61349;-83
2021/12/11 04:36:53;;;;;;;;;;;;;;;21.99;38.44;100254.71;101453;1357;73015;-83
2021/12/11 04:39:36;;;;;;;;;;;;;;;21.99;38.48;100253.84;101551;1355;75354;-83
2021/12/11 04:42:14;;;;;;;;;;;;;;;21.99;38.55;100256.15;101642;1355;61181;-83
2021/12/11 04:44:50;;;;;;;;;;;;;;;21.99;38.63;100265.80;101658;1354;61614;-83
2021/12/11 04:48:03;;;;;;;;;;;;;;;21.99;38.61;100265.83;101331;1361;74223;-84
2021/12/11 05:00:05;;;;;;;;;;;;;;;22.00;38.62;100269.91;100658;1366;71483;-84
2021/12/11 05:04:01;;;;;;;;;;;;;;;22.00;38.55;100264.52;100193;1372;75641;-83
2021/12/11 05:12:10;;;;;;;;;;;;;;;22.00;38.52;100285.23;100317;1375;73879;-83
2021/12/11 05:15:13;;;;;;;;;;;;;;;;;;;;;
2021/12/11 05:18:17;;;;;;;;;;;;;;;22.00;38.48;100260.88;100346;1374;61538;-83
2021/12/11 05:21:06;;;;;;;;;;;;;;;22.01;38.54;100263.35;100407;1372;61384;-83
2021/12/11 05:24:15;;;;;;;;;;;;;;;22.01;38.53;100274.09;100390;1369;74897;-83
2021/12/11 05:27:10;;;;;;;;;;;;;;;22.01;38.66;100291.62;100094;1378;75908;-83
2021/12/11 05:30:03;;;;;;;;;;;;;;;22.01;38.38;100296.82;99830;1379;61662;-82
2021/12/11 05:32:56;;;;;;;;;;;;;;;22.02;38.65;100294.28;99590;1377;61119;-83
2021/12/11 05:35:36;;;;;;;;;;;;;;;22.01;38.69;100295.91;99558;1383;72350;-83
2021/12/11 05:38:49;;;;;;;;;;;;;;;22.02;38.54;100303.95;99919;1376;73585;-82
2021/12/11 05:41:46;;;;;;;;;;;;;;;22.02;38.56;100297.66;100940;1369;61314;-83
2021/12/11 05:44:28;;;;;;;;;;;;;;;22.02;38.55;100295.34;101049;1366;61417;-82
2021/12/11 05:47:05;;;;;;;;;;;;;;;22.02;38.49;100301.25;100727;1365;72958;-82
2021/12/11 05:49:31;;;;;;;;;;;;;;;22.02;38.63;100294.99;100591;1371;75796;-83
2021/12/11 05:52:16;;;;;;;;;;;;;;;22.02;38.50;100294.97;100609;1371;61285;-83
2021/12/11 05:55:04;;;;;;;;;;;;;;;22.02;38.54;100290.70;100632;1365;61639;-83
2021/12/11 05:58:12;;;;;;;;;;;;;;;;;;;;;
2021/12/11 06:01:20;;;;;;;;;;;;;;;;;;;;;
2021/12/11 06:04:18;;;;;;;;;;;;;;;;;;;;;
2021/12/11 06:06:56;;;;;;;;;;;;;;;;;;;;;
2021/12/11 06:09:55;;;;;;;;;;;;;;;22.03;38.58;100301.11;101109;1360;73940;-84
2021/12/11 06:12:49;;;;;;;;;;;;;;;22.04;38.66;100312.04;101123;1366;74826;-84
2021/12/11 06:15:39;;;;;;;;;;;;;;;22.03;38.46;100320.47;101261;1367;61185;-84
2021/12/11 06:18:20;;;;;;;;;;;;;;;22.04;38.42;100336.94;101350;1359;61374;-82
2021/12/11 06:20:48;;;;;;;;;;;;;;;22.04;38.59;100348.03;101384;1360;72891;-82
2021/12/11 06:23:42;;;;;;;;;;;;;;;22.04;38.61;100347.81;101466;1360;73556;-83
2021/12/11 06:26:49;;;;;;;;;;;;;;;;;;;;;
2021/12/11 06:29:37;;;;;;;;;;;;;;;;;;;;;
2021/12/11 06:32:16;;;;;;;;;;;;;;;22.05;38.58;100330.70;101569;1357;72963;-83
2021/12/11 06:35:08;;;;;;;;;;;;;;;22.05;38.51;100334.66;101469;1357;74860;-83
2021/12/11 06:38:35;;;;;;;;;;;;;;;22.05;38.49;100342.34;101290;1363;61421;-84
2021/12/11 06:41:23;;;;;;;;;;;;;;;;;;;;;
2021/12/11 06:44:29;;;;;;;;;;;;;;;;;;;;;
2021/12/11 06:47:22;;;;;;;;;;;;;;;;;;;;;
2021/12/11 06:50:18;;;;;;;;;;;;;;;;;;;;;
2021/12/11 06:53:21;;;;;;;;;;;;;;;22.07;38.45;100383.00;101062;1362;61426;-83
2021/12/11 06:56:06;;;;;;;;;;;;;;;22.08;38.51;100380.44;101068;1363;73060;-83
2021/12/11 06:58:37;;;;;;;;;;;;;;;22.09;38.60;100393.33;101097;1360;75911;-84
2021/12/11 07:01:09;;;;;;;;;;;;;;;22.09;38.38;100389.70;100970;1363;61224;-83
2021/12/11 07:03:34;;;;;;;;;;;;;;;22.09;38.36;100390.22;101009;1363;61234;-84
2021/12/11 07:06:26;;;;;;;;;;;;;;;22.09;38.47;100389.35;101102;1367;73591;-83
2021/12/11 07:09:10;;;;;;;;;;;;;;;;;;;;;
2021/12/11 07:11:57;;;;;;;;;;;;;;;22.10;38.54;100382.11;101199;1360;62559;-83
2021/12/11 07:14:25;;;;;;;;;;;;;;;22.10;38.57;100379.95;101559;1357;61436;-83
2021/12/11 07:17:15;;;;;;;;;;;;;;;22.09;38.40;100373.17;101438;1356;72847;-83
2021/12/11 07:19:51;;;;;;;;;;;;;;;22.10;38.49;100366.31;101547;1363;75707;-83
2021/12/11 07:22:46;;;;;;;;;;;;;;;22.10;38.46;100362.36;101568;1356;61247;-83
2021/12/11 07:25:33;;;;;;;;;;;;;;;22.11;38.41;100362.16;101040;1363;61348;-84
2021/12/11 07:28:10;;;;;;;;;;;;;;;22.11;38.45;100367.17;101058;1368;71892;-82
2021/12/11 07:30:47;;;;;;;;;;;;;;;22.11;38.50;100373.05;101034;1362;75311;-83
2021/12/11 07:33:44;;;;;;;;;;;;;;;;;;;;;
2021/12/11 07:36:32;;;;;;;;;;;;;;;22.11;38.48;100387.74;101049;1363;61543;-82
2021/12/11 07:39:09;;;;;;;;;;;;;;;22.11;38.56;100398.32;101035;1368;72824;-83
2021/12/11 07:41:58;;;;;;;;;;;;;;;22.12;38.39;100406.70;100394;1372;76356;-84
2021/12/11 07:44:45;;;;;;;;;;;;;;;;;;;;;
2021/12/11 07:47:29;;;;;;;;;;;;;;;22.12;38.49;100429.27;100422;1369;62571;-83
2021/12/11 07:50:52;;;;;;;;;;;;;;;22.13;38.37;100435.31;100278;1375;73794;-82
2021/12/11 07:53:23;;;;;;;;;;;;;;;22.12;38.40;100444.83;100378;1372;76350;-82
2021/12/11 07:56:04;;;;;;;;;;;;;;;22.13;38.42;100453.21;100370;1369;63020;-83
2021/12/11 07:58:43;;;;;;;;;;;;;;;22.13;38.45;100464.88;100329;1369;61286;-82
2021/12/11 08:01:30;;;;;;;;;;;;;;;;;;;;;
2021/12/11 08:04:10;;;;;;;;;;;;;;;22.14;38.40;100482.90;100685;1369;75868;-83
2021/12/11 08:07:09;;;;;;;;;;;;;;;22.13;38.47;100477.90;100623;1365;61259;-83
2021/12/11 08:09:55;;;;;;;;;;;;;;;22.14;38.31;100483.95;100672;1366;61483;-83
2021/12/11 08:12:47;;;;;;;;;;;;;;;22.14;38.28;100477.33;100284;1376;72617;-83
2021/12/11 08:15:34;;;;;;;;;;;;;;;22.14;38.37;100480.55;100317;1368;75852;-83
2021/12/11 08:18:29;;;;;;;;;;;;;;;22.15;38.36;100477.96;100241;1369;61300;-84
2021/12/11 08:21:32;;;;;;;;;;;;;;;22.15;38.50;100475.81;100780;1360;61234;-83
2021/12/11 08:24:40;;;;;;;;;;;;;;;22.15;38.56;100474.00;101432;1360;72043;-83
2021/12/11 08:27:48;;;;;;;;;;;;;;;;;;;;;
2021/12/11 08:30:27;;;;;;;;;;;;;;;22.16;38.48;100482.90;100452;1366;61223;-84
2021/12/11 08:36:34;;;;;;;;;;;;;;;22.16;38.46;100483.23;100394;1373;73016;-82
2021/12/11 08:39:18;;;;;;;;;;;;;;;;;;;;;
2021/12/11 08:42:08;;;;;;;;;;;;;;;22.16;38.46;100463.32;100456;1368;61428;-83
2021/12/11 08:45:10;;;;;;;;;;;;;;;22.17;38.26;100452.01;100108;1372;61234;-84
2021/12/11 08:48:07;;;;;;;;;;;;;;;22.17;38.32;100448.75;100094;1378;72810;-84
2021/12/11 08:51:03;;;;;;;;;;;;;;;;;;;;;
2021/12/11 08:54:13;;;;;;;;;;;;;;;22.17;38.43;100440.17;100264;1375;61693;-83
2021/12/11 08:56:54;;;;;;;;;;;;;;;22.17;38.32;100434.39;100133;1375;61314;-82
2021/12/11 09:00:21;;;;;;;;;;;;;;;22.17;38.34;100433.66;99509;1378;70647;-83
2021/12/11 09:02:55;;;;;;;;;;;;;;;22.17;38.47;100431.33;99162;1383;75221;-82
2021/12/11 09:05:45;;;;;;;;;;;;;;;22.18;38.49;100426.30;99071;1383;61299;-82
2021/12/11 09:08:35;;;;;;;;;;;;;;;22.18;38.39;100421.09;99310;1387;61493;-83
2021/12/11 09:11:34;;;;;;;;;;;;;;;22.17;38.47;100414.13;99369;1381;73919;-84
2021/12/11 09:14:47;;;;;;;;;;;;;;;;;;;;;
2021/12/11 09:17:46;;;;;;;;;;;;;;;22.18;38.31;100404.04;99308;1380;61133;-83
2021/12/11 09:21:06;;;;;;;;;;;;;;;;;;;;;
2021/12/11 09:24:05;;;;;;;;;;;;;;;;;;;;;
2021/12/11 09:27:04;;;;;;;;;;;;;;;22.20;38.34;100368.95;98999;1387;75648;-83
2021/12/11 09:29:51;;;;;;;;;;;;;;;22.20;38.37;100343.11;99491;1385;61487;-83
2021/12/11 09:33:03;;;;;;;;;;;;;;;22.21;38.31;100338.54;99452;1385;61253;-84
2021/12/11 09:36:05;;;;;;;;;;;;;;;22.22;38.22;100356.52;99275;1387;72923;-82
2021/12/11 09:39:04;;;;;;;;;;;;;;;22.23;38.28;100381.23;99501;1381;74219;-82
2021/12/11 09:41:36;;;;;;;;;;;;;;;22.23;38.38;100381.88;99745;1377;61507;-83
2021/12/11 09:44:26;;;;;;;;;;;;;;;;;;;;;
2021/12/11 09:47:14;;;;;;;;;;;;;;;22.24;38.29;100369.30;99737;1381;72985;-83
2021/12/11 09:49:58;;;;;;;;;;;;;;;22.23;38.23;100362.53;99937;1378;75815;-85
2021/12/11 09:52:57;;;;;;;;;;;;;;;;;;;;;
2021/12/11 09:55:32;;;;;;;;;;;;;;;22.23;38.40;100360.03;99787;1374;59458;-83
2021/12/11 09:58:54;;;;;;;;;;;;;;;22.23;38.31;100363.60;100116;1374;74156;-82
2021/12/11 10:01:34;;;;;;;;;;;;;;;;;;;;;
2021/12/11 10:04:35;;;;;;;;;;;;;;;22.23;38.27;100355.57;100072;1379;61214;-83
2021/12/11 10:07:24;;;;;;;;;;;;;;;22.23;38.28;100341.79;100095;1372;60306;-82
2021/12/11 10:09:54;;;;;;;;;;;;;;;22.23;38.31;100330.64;99911;1375;72708;-82
2021/12/11 10:12:29;;;;;;;;;;;;;;;22.23;38.32;100332.04;100112;1374;75935;-83
2021/12/11 10:15:22;;;;;;;;;;;;;;;22.23;38.33;100340.31;100385;1369;61323;-82
2021/12/11 10:18:02;;;;;;;;;;;;;;;22.24;38.36;100341.16;100419;1374;62070;-82
2021/12/11 10:20:48;;;;;;;;;;;;;;;22.24;38.24;100342.06;100382;1375;72902;-83
2021/12/11 10:23:15;;;;;;;;;;;;;;;22.23;38.27;100349.48;99939;1375;76287;-83
2021/12/11 10:25:53;;;;;;;;;;;;;;;22.23;38.30;100339.77;99955;1378;61606;-83
2021/12/11 10:28:44;;;;;;;;;;;;;;;22.23;38.24;100327.40;99718;1381;61634;-83
2021/12/11 10:31:39;;;;;;;;;;;;;;;22.24;38.12;100309.64;100442;1373;71701;-82
2021/12/11 10:34:46;;;;;;;;;;;;;;;22.23;38.25;100312.02;100316;1369;75874;-83
2021/12/11 10:37:40;;;;;;;;;;;;;;;;;;;;;
2021/12/11 10:40:25;;;;;;;;;;;;;;;22.23;38.18;100325.98;101010;1363;61440;-83
2021/12/11 10:43:34;;;;;;;;;;;;;;;22.23;38.08;100332.63;100878;1366;72770;-83
2021/12/11 10:46:11;;;;;;;;;;;;;;;22.23;38.30;100337.96;100746;1365;76178;-83
2021/12/11 10:48:59;;;;;;;;;;;;;;;22.24;38.30;100338.84;100695;1369;61250;-83
2021/12/11 10:52:16;;;;;;;;;;;;;;;;;;;;;
2021/12/11 10:54:52;;;;;;;;;;;;;;;22.24;38.19;100339.52;101342;1363;72968;-83
2021/12/11 10:57:43;;;;;;;;;;;;;;;22.25;38.15;100339.67;101465;1362;74997;-82
2021/12/11 11:00:29;;;;;;;;;;;;;;;22.25;38.29;100334.65;101475;1359;61459;-82
2021/12/11 11:03:09;;;;;;;;;;;;;;;22.25;38.04;100330.34;101548;1362;62006;-83
2021/12/11 11:05:38;;;;;;;;;;;;;;;22.25;38.09;100320.77;101518;1357;72870;-82
2021/12/11 11:08:46;;;;;;;;;;;;;;;;;;;;;
2021/12/11 11:11:17;;;;;;;;;;;;;;;22.25;38.28;100306.83;101546;1360;61712;-82
2021/12/11 11:14:17;;;;;;;;;;;;;;;22.26;38.23;100306.90;101462;1363;61345;-82
2021/12/11 11:17:02;;;;;;;;;;;;;;;22.26;38.16;100312.29;101498;1360;72887;-83
2021/12/11 11:19:38;;;;;;;;;;;;;;;22.26;38.29;100306.19;101494;1360;75679;-82
2021/12/11 11:22:15;;;;;;;;;;;;;;;22.26;38.23;100299.39;101391;1363;62217;-82
2021/12/11 11:25:24;;;;;;;;;;;;;;;22.26;38.21;100295.09;101396;1363;61499;-82
2021/12/11 11:28:04;;;;;;;;;;;;;;;22.26;38.26;100300.68;101559;1357;74108;-83
2021/12/11 11:30:38;;;;;;;;;;;;;;;22.26;38.29;100296.54;101474;1362;75994;-82
2021/12/11 11:33:18;;;;;;;;;;;;;;;22.26;38.32;100299.05;101831;1348;61292;-82
2021/12/11 11:36:26;;;;;;;;;;;;;;;22.26;38.30;100303.66;101822;1353;61302;-83
2021/12/11 11:38:59;;;;;;;;;;;;;;;22.26;38.40;100299.95;101865;1354;72726;-83
2021/12/11 11:41:55;;;;;;;;;;;;;;;22.26;38.48;100295.96;101756;1355;75683;-83
2021/12/11 11:44:34;;;;;;;;;;;;;;;22.27;38.31;100292.02;101731;1355;61651;-82
2021/12/11 11:47:40;;;;;;;;;;;;;;;;;;;;;
2021/12/11 11:50:35;;;;;;;;;;;;;;;22.27;38.20;100291.03;101846;1353;72923;-83
2021/12/11 11:53:18;;;;;;;;;;;;;;;22.27;38.23;100288.36;101715;1350;74895;-83
2021/12/11 11:56:30;;;;;;;;;;;;;;;22.28;38.38;100288.69;101743;1353;61502;-81
2021/12/11 11:59:14;;;;;;;;;;;;;;;22.28;38.41;100291.88;101729;1349;61187;-82
2021/12/11 12:02:07;;;;;;;;;;;;;;;22.28;38.27;100290.97;101839;1354;72781;-82
2021/12/11 12:04:44;;;;;;;;;;;;;;;22.29;38.44;100292.54;101750;1355;75278;-82
2021/12/11 12:07:49;;;;;;;;;;;;;;;22.29;38.47;100291.27;101711;1349;61274;-82
2021/12/11 12:10:44;;;;;;;;;;;;;;;22.30;38.36;100294.95;101420;1357;61852;-82
2021/12/11 12:13:24;;;;;;;;;;;;;;;;;;;;;
2021/12/11 12:16:04;;;;;;;;;;;;;;;22.31;38.41;100301.48;101344;1356;75712;-82
2021/12/11 12:19:01;;;;;;;;;;;;;;;22.32;38.30;100298.17;101404;1357;60726;-81
2021/12/11 12:21:36;;;;;;;;;;;;;;;22.32;38.28;100307.16;100735;1369;61273;-81
2021/12/11 12:24:17;;;;;;;;;;;;;;;;;;;;;
2021/12/11 12:26:52;;;;;;;;;;;;;;;22.33;38.49;100312.14;100705;1362;75322;-81
2021/12/11 12:29:38;;;;;;;;;;;;;;;;;;;;;
2021/12/11 12:32:22;;;;;;;;;;;;;;;22.33;38.53;100317.30;100913;1368;61111;-82
2021/12/11 12:35:02;;;;;;;;;;;;;;;22.34;38.53;100316.00;101014;1361;72910;-81
2021/12/11 12:37:53;;;;;;;;;;;;;;;22.34;38.31;100309.70;101059;1366;74851;-82
2021/12/11 12:40:27;;;;;;;;;;;;;;;22.34;38.44;100314.69;101102;1367;61647;-82
2021/12/11 12:43:20;;;;;;;;;;;;;;;22.34;38.57;100316.81;101100;1366;61738;-83
2021/12/11 12:46:09;;;;;;;;;;;;;;;22.35;38.38;100315.03;101055;1367;73929;-83
2021/12/11 12:49:06;;;;;;;;;;;;;;;22.35;38.33;100310.55;101109;1363;75726;-83
2021/12/11 12:52:02;;;;;;;;;;;;;;;22.35;38.44;100306.80;101301;1366;61335;-84
2021/12/11 13:01:13;;;;;;;;;;;;;;;;;;;;;
2021/12/11 13:04:22;;;;;;;;;;;;;;;22.36;38.50;100298.63;100626;1372;61334;-83
2021/12/11 13:07:02;;;;;;;;;;;;;;;22.36;38.41;100298.21;100628;1365;61279;-84
2021/12/11 13:09:59;;;;;;;;;;;;;;;22.36;38.58;100300.90;100557;1365;72979;-83
2021/12/11 13:12:51;;;;;;;;;;;;;;;22.36;38.43;100301.06;100280;1373;74868;-83
2021/12/11 13:15:30;;;;;;;;;;;;;;;;;;;;;
2021/12/11 13:18:01;;;;;;;;;;;;;;;22.37;38.50;100297.65;100352;1370;61416;-84
2021/12/11 13:21:05;;;;;;;;;;;;;;;;;;;;;
2021/12/11 13:23:52;;;;;;;;;;;;;;;22.38;38.42;100295.98;99923;1375;73947;-81
2021/12/11 13:26:32;;;;;;;;;;;;;;;22.37;38.51;100301.00;100093;1375;61332;-82
2021/12/11 13:29:52;;;;;;;;;;;;;;;;;;;;;
2021/12/11 13:32:42;;;;;;;;;;;;;;;22.38;38.47;100306.89;100237;1376;73127;-83
2021/12/11 13:35:43;;;;;;;;;;;;;;;;;;;;;
2021/12/11 13:38:22;;;;;;;;;;;;;;;22.38;38.49;100303.08;101265;1360;61638;-83
2021/12/11 13:40:55;;;;;;;;;;;;;;;22.38;38.61;100296.96;101170;1366;61323;-83
2021/12/11 13:43:42;;;;;;;;;;;;;;;22.38;38.58;100301.97;101242;1366;72741;-82
2021/12/11 13:46:33;;;;;;;;;;;;;;;;;;;;;
2021/12/11 13:49:01;;;;;;;;;;;;;;;22.39;38.64;100300.13;101109;1361;61316;-83
2021/12/11 13:51:56;;;;;;;;;;;;;;;22.40;38.49;100303.52;101233;1356;61347;-83
2021/12/11 13:54:46;;;;;;;;;;;;;;;;;;;;;
2021/12/11 13:57:24;;;;;;;;;;;;;;;22.40;38.62;100301.14;101374;1355;74941;-83
2021/12/11 14:00:09;;;;;;;;;;;;;;;;;;;;;
2021/12/11 14:02:51;;;;;;;;;;;;;;;22.40;38.65;100307.90;101854;1353;61263;-82
2021/12/11 14:05:27;;;;;;;;;;;;;;;22.41;38.58;100307.52;101865;1353;74437;-84
2021/12/11 14:08:12;;;;;;;;;;;;;;;22.40;38.65;100305.95;101882;1353;74802;-82
2021/12/11 14:10:58;;;;;;;;;;;;;;;22.41;38.54;100307.52;101851;1355;61122;-82
2021/12/11 14:13:38;;;;;;;;;;;;;;;22.41;38.54;100308.41;101829;1355;61183;-83
2021/12/11 14:16:23;;;;;;;;;;;;;;;;;;;;;
2021/12/11 14:19:06;;;;;;;;;;;;;;;22.40;38.51;100300.91;101822;1354;74780;-83
2021/12/11 14:21:40;;;;;;;;;;;;;;;22.40;38.46;100306.12;101911;1353;61324;-83
2021/12/11 14:24:29;;;;;;;;;;;;;;;;;;;;;
2021/12/11 14:26:59;;;;;;;;;;;;;;;22.40;38.52;100303.80;101804;1354;73120;-82
2021/12/11 14:29:57;;;;;;;;;;;;;;;22.40;38.50;100307.19;101799;1356;76494;-82
2021/12/11 14:32:43;;;;;;;;;;;;;;;;;;;;;
2021/12/11 14:35:49;;;;;;;;;;;;;;;22.40;38.67;100296.13;101829;1355;61087;-82
2021/12/11 14:38:22;;;;;;;;;;;;;;;22.40;38.64;100297.73;101700;1357;72771;-82
2021/12/11 14:41:21;;;;;;;;;;;;;;;;;;;;;
2021/12/11 14:44:20;;;;;;;;;;;;;;;;;;;;;
2021/12/11 14:47:09;;;;;;;;;;;;;;;22.40;38.68;100299.49;101822;1350;61269;-82
2021/12/11 14:49:52;;;;;;;;;;;;;;;22.41;38.67;100294.25;101889;1354;71636;-82
2021/12/11 14:52:48;;;;;;;;;;;;;;;22.40;38.71;100296.80;101527;1362;73569;-82
2021/12/11 14:56:02;;;;;;;;;;;;;;;;;;;;;
2021/12/11 14:58:36;;;;;;;;;;;;;;;22.40;38.96;100297.23;101706;1360;61858;-83
2021/12/11 15:01:25;;;;;;;;;;;;;;;22.40;38.69;100295.56;101559;1361;71583;-82
2021/12/11 15:04:30;;;;;;;;;;;;;;;22.40;38.90;100296.60;101422;1358;75855;-83
2021/12/11 15:07:32;;;;;;;;;;;;;;;22.40;38.71;100294.11;101647;1354;61442;-83
2021/12/11 15:10:19;;;;;;;;;;;;;;;22.40;38.66;100297.20;101183;1356;400228;-83
2021/12/11 15:13:05;;;;;;;;;;;;;;;;;;;;;
2021/12/11 15:16:00;;;;;;;;;;;;;;;22.40;38.72;100296.80;101576;1358;74824;-84
2021/12/11 15:18:47;;;;;;;;;;;;;;;22.40;38.78;100289.14;101089;1368;61298;-83
2021/12/11 15:21:43;;;;;;;;;;;;;;;22.40;38.81;100285.54;101094;1359;61193;-83
2021/12/11 15:24:28;;;;;;;;;;;;;;;22.40;38.65;100284.45;101267;1361;72854;-84
2021/12/11 15:27:15;;;;;;;;;;;;;;;22.40;38.80;100278.38;101309;1363;75831;-83
2021/12/11 15:30:21;;;;;;;;;;;;;;;22.40;38.73;100274.95;101404;1362;61384;-83
2021/12/11 15:33:01;;;;;;;;;;;;;;;22.40;38.80;100276.90;101087;1367;61493;-83
2021/12/11 15:36:16;;;;;;;;;;;;;;;22.40;38.73;100276.02;100959;1367;74392;-83
2021/12/11 15:39:02;;;;;;;;;;;;;;;;;;;;;
2021/12/11 15:42:08;;;;;;;;;;;;;;;22.40;38.73;100267.81;100703;1371;61350;-83
2021/12/11 15:44:41;;;;;;;;;;;;;;;22.40;38.97;100263.84;100655;1369;61338;-83
2021/12/11 15:47:18;;;;;;;;;;;;;;;;;;;;;
2021/12/11 15:49:53;;;;;;;;;;;;;;;22.40;38.75;100267.62;100639;1369;74924;-85
2021/12/11 15:52:56;;;;;;;;;;;;;;;22.40;38.76;100267.58;100669;1369;62539;-83
2021/12/11 15:55:52;;;;;;;;;;;;;;;22.41;38.60;100270.92;100859;1363;61269;-82
2021/12/11 15:58:43;;;;;;;;;;;;;;;22.41;38.89;100269.30;101260;1363;72968;-83
2021/12/11 16:01:23;;;;;;;;;;;;;;;22.41;38.87;100276.66;101361;1363;74767;-83
2021/12/11 16:04:14;;;;;;;;;;;;;;;22.41;38.83;100283.30;101105;1363;61345;-82
2021/12/11 16:06:43;;;;;;;;;;;;;;;22.41;38.99;100279.52;101244;1360;61217;-80
2021/12/11 16:09:48;;;;;;;;;;;;;;;;;;;;;
2021/12/11 16:12:21;;;;;;;;;;;;;;;22.41;38.95;100271.83;101284;1362;74484;-82
2021/12/11 16:15:29;;;;;;;;;;;;;;;;;;;;;
2021/12/11 16:18:13;;;;;;;;;;;;;;;;;;;;;
2021/12/11 16:20:55;;;;;;;;;;;;;;;22.42;38.96;100287.90;101764;1353;72781;-82
2021/12/11 16:23:52;;;;;;;;;;;;;;;;;;;;;
2021/12/11 16:26:49;;;;;;;;;;;;;;;22.42;38.92;100291.41;101902;1350;61489;-83
2021/12/11 16:29:39;;;;;;;;;;;;;;;22.42;38.91;100294.30;101547;1357;61815;-83
2021/12/11 16:32:37;;;;;;;;;;;;;;;;;;;;;
2021/12/11 16:35:48;;;;;;;;;;;;;;;;;;;;;